Time;durP1;ratioP1;P1;durP2;ratioP2;P2;SDS_P1;SDS_P2;PMS_P1;PMS_P2;Temp;Humidity;BMP_temperature;BMP_pressure;BME280_temperature;BME280_humidity;BME280_pressure;Samples;Min_cycle;Max_cycle;Signal;HPM_P1;HPM_P2
2021/05/02 00:00:21;;;;;;;69.65;39.90;;;;;;;;;;5076729;28;20029;-76
2021/05/02 00:02:48;;;;;;;55.97;34.88;;;;;;;;;;5076536;28;20448;-76
2021/05/02 00:05:15;;;;;;;43.15;29.52;;;;;;;;;;5076484;28;20035;-76
2021/05/02 00:07:41;;;;;;;41.88;25.35;;;;;;;;;;5076668;28;20028;-77
2021/05/02 00:10:08;;;;;;;44.15;24.42;;;;;;;;;;5076561;28;20031;-76
2021/05/02 00:12:35;;;;;;;33.17;21.77;;;;;;;;;;5076534;28;20368;-77
2021/05/02 00:15:01;;;;;;;34.17;20.15;;;;;;;;;;5076521;28;20020;-76
2021/05/02 00:17:27;;;;;;;28.15;18.60;;;;;;;;;;5076152;28;20067;-77
2021/05/02 00:19:54;;;;;;;22.88;16.63;;;;;;;;;;5076274;28;20036;-76
2021/05/02 00:22:20;;;;;;;25.35;17.40;;;;;;;;;;5076425;28;20064;-76
2021/05/02 00:24:50;;;;;;;21.25;15.70;;;;;;;;;;5076368;28;20032;-77
2021/05/02 00:27:16;;;;;;;26.60;17.30;;;;;;;;;;5076045;28;20029;-76
2021/05/02 00:29:42;;;;;;;24.38;17.65;;;;;;;;;;5076258;28;20085;-76
2021/05/02 00:32:09;;;;;;;26.40;17.95;;;;;;;;;;5076110;28;20471;-75
2021/05/02 00:34:36;;;;;;;22.90;17.52;;;;;;;;;;5076557;28;20020;-76
2021/05/02 00:37:03;;;;;;;26.90;17.63;;;;;;;;;;5075898;28;20404;-77
2021/05/02 00:39:29;;;;;;;24.92;16.80;;;;;;;;;;5076029;28;20487;-76
2021/05/02 00:41:58;;;;;;;20.38;15.60;;;;;;;;;;5075816;28;20438;-76
2021/05/02 00:44:30;;;;;;;27.02;16.08;;;;;;;;;;5075984;28;20025;-76
2021/05/02 00:47:12;;;;;;;21.00;15.43;;;;;;;;;;5076023;28;20060;-76
2021/05/02 00:49:39;;;;;;;21.95;15.80;;;;;;;;;;5075776;28;20072;-76
2021/05/02 00:52:17;;;;;;;24.92;15.65;;;;;;;;;;5075739;28;20031;-76
2021/05/02 00:55:01;;;;;;;24.52;15.85;;;;;;;;;;5075744;28;20078;-76
2021/05/02 00:57:30;;;;;;;27.48;15.07;;;;;;;;;;5075594;28;20031;-76
2021/05/02 00:59:56;;;;;;;28.20;16.77;;;;;;;;;;5075539;28;20025;-75
2021/05/02 01:02:23;;;;;;;26.08;18.55;;;;;;;;;;5075659;28;20090;-75
2021/05/02 01:04:49;;;;;;;29.48;18.98;;;;;;;;;;5075564;28;20107;-76
2021/05/02 01:07:20;;;;;;;29.65;20.70;;;;;;;;;;5075474;28;20025;-76
2021/05/02 01:09:47;;;;;;;29.90;21.33;;;;;;;;;;5075133;28;20467;-76
2021/05/02 01:12:14;;;;;;;30.05;20.40;;;;;;;;;;5075324;28;20112;-76
2021/05/02 01:14:45;;;;;;;34.22;24.38;;;;;;;;;;5075584;28;20056;-76
2021/05/02 01:17:13;;;;;;;34.63;23.05;;;;;;;;;;5075258;28;20035;-76
2021/05/02 01:19:39;;;;;;;28.13;20.52;;;;;;;;;;5075505;28;20466;-77
2021/05/02 01:22:13;;;;;;;33.33;18.92;;;;;;;;;;5075128;28;20040;-76
2021/05/02 01:24:40;;;;;;;29.67;19.23;;;;;;;;;;5075232;28;20024;-76
2021/05/02 01:27:06;;;;;;;29.38;17.90;;;;;;;;;;5075105;28;20075;-76
2021/05/02 01:29:32;;;;;;;25.58;16.58;;;;;;;;;;5074109;28;20384;-75
2021/05/02 01:31:59;;;;;;;25.98;17.40;;;;;;;;;;5075065;28;20040;-76
2021/05/02 01:34:25;;;;;;;27.85;18.33;;;;;;;;;;5074909;28;20020;-76
2021/05/02 01:36:51;;;;;;;31.58;20.75;;;;;;;;;;5074672;28;20075;-76
2021/05/02 01:39:17;;;;;;;30.83;19.05;;;;;;;;;;5074704;28;20025;-75
2021/05/02 01:41:43;;;;;;;26.30;18.48;;;;;;;;;;5074769;28;20036;-76
2021/05/02 01:44:09;;;;;;;29.65;16.40;;;;;;;;;;5074834;28;20029;-76
2021/05/02 01:46:41;;;;;;;29.25;16.27;;;;;;;;;;5075077;28;20463;-75
2021/05/02 01:49:10;;;;;;;26.48;16.25;;;;;;;;;;5074714;28;20108;-76
2021/05/02 01:51:36;;;;;;;23.05;15.65;;;;;;;;;;5074557;28;20078;-75
2021/05/02 01:54:03;;;;;;;29.20;17.30;;;;;;;;;;5074536;28;20025;-76
2021/05/02 01:56:30;;;;;;;23.70;17.27;;;;;;;;;;5074566;28;20032;-76
2021/05/02 01:58:56;;;;;;;25.50;17.42;;;;;;;;;;5074624;28;20028;-76
2021/05/02 02:01:23;;;;;;;24.45;16.95;;;;;;;;;;5074190;28;20475;-76
2021/05/02 02:03:50;;;;;;;24.23;17.38;;;;;;;;;;5074291;28;20028;-76
2021/05/02 02:06:16;;;;;;;28.25;18.58;;;;;;;;;;5074271;28;20071;-76
2021/05/02 02:08:42;;;;;;;25.88;17.63;;;;;;;;;;5074254;28;20032;-76
2021/05/02 02:11:09;;;;;;;24.00;18.88;;;;;;;;;;5074539;28;20041;-76
2021/05/02 02:13:36;;;;;;;29.48;20.92;;;;;;;;;;5074147;28;20024;-76
2021/05/02 02:16:06;;;;;;;29.20;21.38;;;;;;;;;;5074245;28;20025;-76
2021/05/02 02:18:32;;;;;;;29.05;20.33;;;;;;;;;;5074306;28;20036;-76
2021/05/02 02:20:59;;;;;;;36.55;22.10;;;;;;;;;;5073353;28;20043;-76
2021/05/02 02:23:26;;;;;;;33.17;20.70;;;;;;;;;;5074136;28;20031;-76
2021/05/02 02:25:53;;;;;;;32.92;20.70;;;;;;;;;;5073968;28;20024;-76
2021/05/02 02:28:20;;;;;;;35.95;22.00;;;;;;;;;;5073848;28;20024;-76
2021/05/02 02:30:50;;;;;;;35.60;21.88;;;;;;;;;;5073913;28;20074;-76
2021/05/02 02:33:17;;;;;;;34.00;21.83;;;;;;;;;;5073860;28;20028;-76
2021/05/02 02:35:51;;;;;;;33.30;20.70;;;;;;;;;;5073553;28;20137;-76
2021/05/02 02:38:18;;;;;;;34.63;23.55;;;;;;;;;;5073691;28;20538;-76
2021/05/02 02:40:46;;;;;;;38.92;26.55;;;;;;;;;;5073571;28;20101;-75
2021/05/02 02:43:13;;;;;;;42.88;25.98;;;;;;;;;;5073545;28;20083;-76
2021/05/02 02:45:39;;;;;;;43.33;27.00;;;;;;;;;;5073620;28;20504;-75
2021/05/02 02:48:06;;;;;;;36.80;25.92;;;;;;;;;;5073544;28;20025;-75
2021/05/02 02:50:33;;;;;;;37.05;23.45;;;;;;;;;;5073738;28;20471;-76
2021/05/02 02:53:06;;;;;;;43.65;29.10;;;;;;;;;;5073593;28;20020;-76
2021/05/02 02:55:37;;;;;;;39.67;25.23;;;;;;;;;;5073670;28;20357;-76
2021/05/02 02:58:04;;;;;;;33.55;22.02;;;;;;;;;;5073307;28;20016;-76
2021/05/02 03:00:34;;;;;;;29.40;21.27;;;;;;;;;;5073324;28;20040;-76
2021/05/02 03:03:19;;;;;;;36.10;23.58;;;;;;;;;;5073380;28;20025;-76
2021/05/02 03:05:47;;;;;;;34.92;22.67;;;;;;;;;;5073483;28;20074;-76
2021/05/02 03:08:23;;;;;;;32.05;23.55;;;;;;;;;;5073412;28;20035;-76
2021/05/02 03:10:51;;;;;;;30.45;21.20;;;;;;;;;;5072146;28;20120;-76
2021/05/02 03:13:18;;;;;;;31.58;22.17;;;;;;;;;;5071830;28;20024;-76
2021/05/02 03:15:44;;;;;;;33.17;21.88;;;;;;;;;;5073317;28;20107;-76
2021/05/02 03:18:20;;;;;;;32.17;22.48;;;;;;;;;;5073292;28;20025;-77
2021/05/02 03:20:51;;;;;;;37.15;24.45;;;;;;;;;;5056153;28;20029;-76
2021/05/02 03:23:35;;;;;;;32.80;24.80;;;;;;;;;;5073056;28;20077;-76
2021/05/02 03:26:04;;;;;;;36.08;25.33;;;;;;;;;;5073285;28;20078;-76
2021/05/02 03:28:50;;;;;;;34.05;21.95;;;;;;;;;;5073274;28;20533;-76
2021/05/02 03:31:16;;;;;;;29.23;20.40;;;;;;;;;;5073143;28;20531;-76
2021/05/02 03:33:46;;;;;;;29.15;19.42;;;;;;;;;;5077381;28;20111;-76
2021/05/02 03:36:15;;;;;;;23.67;17.98;;;;;;;;;;5076843;28;20051;-75
2021/05/02 03:38:45;;;;;;;22.17;13.57;;;;;;;;;;5077196;28;20155;-76
2021/05/02 03:41:11;;;;;;;20.90;14.55;;;;;;;;;;5077265;28;20029;-76
2021/05/02 03:43:38;;;;;;;18.98;13.63;;;;;;;;;;5077079;28;20099;-76
2021/05/02 03:46:04;;;;;;;21.27;12.57;;;;;;;;;;5077004;28;20025;-76
2021/05/02 03:48:31;;;;;;;21.83;14.02;;;;;;;;;;5076978;28;20056;-76
2021/05/02 03:50:57;;;;;;;26.48;18.42;;;;;;;;;;5076935;28;20027;-76
2021/05/02 03:53:23;;;;;;;25.65;19.27;;;;;;;;;;5076956;28;20024;-76
2021/05/02 03:55:49;;;;;;;23.90;16.63;;;;;;;;;;5076743;28;20372;-75
2021/05/02 03:58:17;;;;;;;28.42;15.55;;;;;;;;;;5076844;28;20067;-76
2021/05/02 04:00:43;;;;;;;25.17;16.05;;;;;;;;;;5076719;28;20483;-76
2021/05/02 04:03:12;;;;;;;20.67;13.00;;;;;;;;;;5076317;28;20066;-76
2021/05/02 04:05:38;;;;;;;17.88;12.50;;;;;;;;;;5076782;28;20025;-76
2021/05/02 04:08:04;;;;;;;25.42;12.75;;;;;;;;;;5076598;28;20121;-76
2021/05/02 04:10:30;;;;;;;19.77;15.73;;;;;;;;;;5076442;28;20070;-77
2021/05/02 04:12:56;;;;;;;24.73;15.65;;;;;;;;;;5076353;28;20036;-76
2021/05/02 04:15:22;;;;;;;29.52;22.20;;;;;;;;;;5076514;28;20028;-75
2021/05/02 04:17:48;;;;;;;37.92;25.88;;;;;;;;;;5076429;28;20506;-76
2021/05/02 04:20:15;;;;;;;32.67;21.48;;;;;;;;;;5076312;28;20032;-76
2021/05/02 04:22:41;;;;;;;25.05;15.68;;;;;;;;;;5076537;28;20028;-75
2021/05/02 04:25:08;;;;;;;20.02;11.13;;;;;;;;;;5059569;28;20033;-76
2021/05/02 04:27:35;;;;;;;23.38;17.42;;;;;;;;;;5075681;28;20024;-75
2021/05/02 04:30:03;;;;;;;24.27;16.63;;;;;;;;;;5075537;28;20047;-76
2021/05/02 04:32:29;;;;;;;21.92;15.02;;;;;;;;;;5075505;28;20035;-75
2021/05/02 04:34:55;;;;;;;24.00;17.08;;;;;;;;;;5075668;28;20467;-76
2021/05/02 04:37:22;;;;;;;18.25;12.68;;;;;;;;;;5076573;28;20064;-75
2021/05/02 04:39:48;;;;;;;23.40;14.55;;;;;;;;;;5058067;28;20496;-77
2021/05/02 04:42:14;;;;;;;20.38;14.45;;;;;;;;;;5076046;28;20036;-77
2021/05/02 04:44:40;;;;;;;25.58;16.98;;;;;;;;;;5075174;28;20449;-77
2021/05/02 04:47:06;;;;;;;30.77;20.63;;;;;;;;;;5075831;28;20078;-76
2021/05/02 04:49:32;;;;;;;36.55;24.70;;;;;;;;;;5075752;28;20090;-76
2021/05/02 04:51:58;;;;;;;29.25;20.42;;;;;;;;;;5076110;28;20024;-77
2021/05/02 04:54:24;;;;;;;25.40;17.30;;;;;;;;;;5075965;28;20142;-78
2021/05/02 04:56:51;;;;;;;25.35;15.90;;;;;;;;;;5075719;28;20466;-78
2021/05/02 04:59:17;;;;;;;24.25;16.38;;;;;;;;;;5075645;28;20162;-77
2021/05/02 05:01:43;;;;;;;23.30;16.20;;;;;;;;;;5075683;28;20028;-77
2021/05/02 05:04:10;;;;;;;33.75;24.17;;;;;;;;;;5075630;28;20524;-78
2021/05/02 05:06:36;;;;;;;38.45;30.50;;;;;;;;;;5075513;28;20029;-78
2021/05/02 05:09:04;;;;;;;30.90;20.35;;;;;;;;;;5075485;28;20025;-76
2021/05/02 05:11:30;;;;;;;29.58;21.25;;;;;;;;;;5075531;28;20082;-76
2021/05/02 05:13:56;;;;;;;27.58;20.17;;;;;;;;;;5075290;28;20028;-76
2021/05/02 05:16:22;;;;;;;22.83;16.88;;;;;;;;;;5075174;28;20028;-76
2021/05/02 05:18:49;;;;;;;29.45;17.73;;;;;;;;;;5075249;28;20464;-77
2021/05/02 05:21:15;;;;;;;22.42;15.18;;;;;;;;;;5075223;28;20044;-76
2021/05/02 05:23:41;;;;;;;22.15;16.67;;;;;;;;;;5075110;28;20016;-76
2021/05/02 05:26:07;;;;;;;25.40;16.30;;;;;;;;;;5057127;28;20507;-76
2021/05/02 05:28:33;;;;;;;28.00;15.45;;;;;;;;;;5074732;28;20029;-76
2021/05/02 05:30:59;;;;;;;23.17;13.93;;;;;;;;;;5074851;28;20025;-76
2021/05/02 05:33:30;;;;;;;23.30;14.10;;;;;;;;;;5075146;28;20082;-76
2021/05/02 05:35:56;;;;;;;24.58;14.60;;;;;;;;;;5074554;28;20048;-76
2021/05/02 05:38:22;;;;;;;22.23;13.32;;;;;;;;;;5057069;28;20433;-76
2021/05/02 05:40:48;;;;;;;18.90;11.43;;;;;;;;;;5074747;28;20025;-77
2021/05/02 05:43:14;;;;;;;18.67;12.43;;;;;;;;;;5074919;28;20387;-77
2021/05/02 05:45:40;;;;;;;18.25;12.55;;;;;;;;;;5074936;28;20021;-77
2021/05/02 05:48:07;;;;;;;18.55;11.10;;;;;;;;;;5074633;28;20032;-77
2021/05/02 05:50:33;;;;;;;66.72;53.30;;;;;;;;;;5074749;28;20055;-77
2021/05/02 05:52:59;;;;;;;20.42;12.00;;;;;;;;;;5074566;28;20380;-77
2021/05/02 05:55:25;;;;;;;14.70;8.18;;;;;;;;;;5074444;28;20031;-77
2021/05/02 05:57:52;;;;;;;19.08;9.63;;;;;;;;;;5074454;28;20100;-76
2021/05/02 06:00:19;;;;;;;15.13;10.30;;;;;;;;;;5056651;28;20082;-77
2021/05/02 06:02:46;;;;;;;19.33;13.23;;;;;;;;;;5074470;28;20431;-77
2021/05/02 06:05:12;;;;;;;19.60;12.38;;;;;;;;;;5074417;28;20506;-77
2021/05/02 06:07:38;;;;;;;21.25;12.25;;;;;;;;;;5074167;28;20024;-77
2021/05/02 06:10:05;;;;;;;26.50;16.80;;;;;;;;;;5074134;28;20098;-77
2021/05/02 06:12:31;;;;;;;20.08;12.55;;;;;;;;;;5074306;28;20494;-76
2021/05/02 06:14:57;;;;;;;18.17;12.60;;;;;;;;;;5074121;28;20464;-77
2021/05/02 06:17:23;;;;;;;18.70;12.63;;;;;;;;;;5074296;28;20507;-76
2021/05/02 06:19:49;;;;;;;25.13;19.25;;;;;;;;;;5074009;28;20036;-75
2021/05/02 06:22:16;;;;;;;18.48;12.90;;;;;;;;;;5073971;28;20028;-76
2021/05/02 06:24:42;;;;;;;19.13;12.98;;;;;;;;;;5074289;28;20035;-76
2021/05/02 06:27:08;;;;;;;22.40;13.32;;;;;;;;;;5074043;28;20170;-76
2021/05/02 06:29:34;;;;;;;18.17;11.63;;;;;;;;;;5073875;28;20028;-77
2021/05/02 06:32:00;;;;;;;20.10;10.73;;;;;;;;;;5073810;28;20086;-77
2021/05/02 06:34:26;;;;;;;20.05;10.85;;;;;;;;;;5073626;28;20066;-76
2021/05/02 06:36:58;;;;;;;16.40;9.43;;;;;;;;;;5073448;28;20460;-76
2021/05/02 06:39:24;;;;;;;18.42;9.93;;;;;;;;;;5073808;28;20392;-77
2021/05/02 06:41:50;;;;;;;20.55;9.77;;;;;;;;;;5073507;28;20036;-77
2021/05/02 06:44:16;;;;;;;20.10;10.00;;;;;;;;;;5073873;28;20024;-77
2021/05/02 06:46:42;;;;;;;17.50;9.35;;;;;;;;;;5073670;28;20060;-77
2021/05/02 06:49:09;;;;;;;18.33;9.30;;;;;;;;;;5073733;28;20028;-77
2021/05/02 06:51:37;;;;;;;15.18;9.50;;;;;;;;;;5073418;28;20021;-77
2021/05/02 06:54:04;;;;;;;14.43;8.52;;;;;;;;;;5073187;28;20475;-76
2021/05/02 06:56:30;;;;;;;19.88;12.05;;;;;;;;;;5073337;28;20032;-76
2021/05/02 06:58:56;;;;;;;14.98;7.75;;;;;;;;;;5073352;28;20111;-77
2021/05/02 07:01:23;;;;;;;14.70;8.18;;;;;;;;;;5073570;28;20499;-76
2021/05/02 07:03:49;;;;;;;17.10;9.27;;;;;;;;;;5073450;28;20021;-76
2021/05/02 07:06:15;;;;;;;13.25;8.25;;;;;;;;;;5072938;28;20460;-77
2021/05/02 07:08:42;;;;;;;17.20;8.40;;;;;;;;;;5073530;28;20029;-77
2021/05/02 07:11:08;;;;;;;17.65;8.20;;;;;;;;;;5073283;28;20032;-77
2021/05/02 07:13:34;;;;;;;16.13;7.13;;;;;;;;;;5073388;28;20067;-77
2021/05/02 07:16:00;;;;;;;15.27;8.40;;;;;;;;;;5073335;28;20035;-77
2021/05/02 07:18:31;;;;;;;20.75;11.15;;;;;;;;;;5073426;28;20032;-77
2021/05/02 07:20:57;;;;;;;26.38;17.70;;;;;;;;;;5073184;28;20090;-76
2021/05/02 07:23:24;;;;;;;18.13;9.88;;;;;;;;;;5073365;28;20036;-76
2021/05/02 07:25:50;;;;;;;15.60;8.52;;;;;;;;;;5073093;28;20028;-76
2021/05/02 07:28:16;;;;;;;16.00;7.35;;;;;;;;;;5073234;28;20028;-76
2021/05/02 07:30:42;;;;;;;17.75;8.65;;;;;;;;;;5073089;28;20024;-77
2021/05/02 07:33:08;;;;;;;18.27;10.07;;;;;;;;;;5073428;28;20383;-77
2021/05/02 07:35:34;;;;;;;16.13;9.02;;;;;;;;;;5073004;28;20049;-77
2021/05/02 07:38:02;;;;;;;15.73;7.85;;;;;;;;;;5073097;28;20082;-77
2021/05/02 07:40:29;;;;;;;16.20;7.32;;;;;;;;;;5073268;28;20033;-77
2021/05/02 07:42:55;;;;;;;14.52;8.63;;;;;;;;;;5073050;28;20038;-77
2021/05/02 07:45:21;;;;;;;15.15;8.35;;;;;;;;;;5073084;28;20406;-76
2021/05/02 07:47:47;;;;;;;34.30;10.77;;;;;;;;;;5073001;28;20025;-76
2021/05/02 07:50:13;;;;;;;18.25;8.45;;;;;;;;;;5072943;28;20028;-77
2021/05/02 07:52:40;;;;;;;17.77;9.20;;;;;;;;;;5072956;28;20020;-76
2021/05/02 07:55:06;;;;;;;16.90;8.65;;;;;;;;;;5072886;28;20498;-76
2021/05/02 07:57:33;;;;;;;17.98;8.73;;;;;;;;;;5055106;28;20029;-76
2021/05/02 07:59:59;;;;;;;17.52;9.55;;;;;;;;;;5073030;28;20036;-75
2021/05/02 08:02:26;;;;;;;16.60;8.98;;;;;;;;;;5072688;28;20178;-76
2021/05/02 08:04:55;;;;;;;15.88;9.13;;;;;;;;;;5072837;28;20017;-78
2021/05/02 08:07:22;;;;;;;19.13;8.75;;;;;;;;;;5072762;28;20028;-76
2021/05/02 08:09:48;;;;;;;18.67;8.27;;;;;;;;;;5072686;28;20442;-78
2021/05/02 08:12:14;;;;;;;13.82;7.35;;;;;;;;;;5072738;28;20032;-78
2021/05/02 08:14:40;;;;;;;12.57;6.75;;;;;;;;;;5072740;28;20024;-77
2021/05/02 08:17:06;;;;;;;16.05;7.97;;;;;;;;;;5072724;28;20024;-77
2021/05/02 08:19:32;;;;;;;15.45;8.15;;;;;;;;;;5074871;28;20538;-77
2021/05/02 08:22:02;;;;;;;16.77;8.18;;;;;;;;;;5076437;28;20484;-76
2021/05/02 08:24:28;;;;;;;11.75;7.38;;;;;;;;;;5076284;28;20108;-78
2021/05/02 08:26:54;;;;;;;14.05;6.60;;;;;;;;;;5076228;28;20028;-76
2021/05/02 08:29:20;;;;;;;14.75;7.65;;;;;;;;;;5076112;28;20417;-77
2021/05/02 08:31:46;;;;;;;15.20;8.18;;;;;;;;;;5076420;28;20024;-76
2021/05/02 08:34:12;;;;;;;16.67;6.88;;;;;;;;;;5076114;28;20527;-77
2021/05/02 08:36:38;;;;;;;14.73;7.20;;;;;;;;;;5057849;28;20101;-76
2021/05/02 08:39:05;;;;;;;15.85;8.88;;;;;;;;;;5076013;28;20028;-76
2021/05/02 08:41:31;;;;;;;14.70;7.85;;;;;;;;;;5075936;28;20040;-76
2021/05/02 08:43:57;;;;;;;11.82;5.82;;;;;;;;;;5075805;28;20025;-77
2021/05/02 08:46:24;;;;;;;15.40;6.50;;;;;;;;;;5075920;28;20020;-78
2021/05/02 08:48:51;;;;;;;12.63;5.63;;;;;;;;;;5075817;28;20033;-76
2021/05/02 08:51:18;;;;;;;14.90;6.05;;;;;;;;;;5075834;28;20025;-77
2021/05/02 08:53:44;;;;;;;12.77;6.57;;;;;;;;;;5075962;28;20427;-76
2021/05/02 08:56:10;;;;;;;15.25;6.53;;;;;;;;;;5075725;28;20031;-77
2021/05/02 08:58:36;;;;;;;12.48;5.78;;;;;;;;;;5075587;28;20506;-76
2021/05/02 09:01:03;;;;;;;12.35;5.43;;;;;;;;;;5075543;28;20483;-79
2021/05/02 09:03:40;;;;;;;16.27;7.18;;;;;;;;;;5075452;28;20044;-79
2021/05/02 09:06:15;;;;;;;13.25;5.72;;;;;;;;;;5075484;28;20024;-76
2021/05/02 09:08:41;;;;;;;32.83;24.25;;;;;;;;;;5075459;28;20034;-78
2021/05/02 09:11:08;;;;;;;18.42;12.23;;;;;;;;;;5075383;28;20032;-78
2021/05/02 09:13:34;;;;;;;15.20;6.30;;;;;;;;;;5075213;28;20038;-79
2021/05/02 09:16:01;;;;;;;13.50;5.90;;;;;;;;;;5075369;28;20426;-78
2021/05/02 09:18:43;;;;;;;13.25;5.50;;;;;;;;;;5075522;28;20029;-78
2021/05/02 09:21:09;;;;;;;14.80;5.80;;;;;;;;;;5075161;28;20036;-78
2021/05/02 09:23:42;;;;;;;12.80;5.30;;;;;;;;;;5075151;28;20494;-78
2021/05/02 09:26:18;;;;;;;10.20;5.03;;;;;;;;;;5075191;28;20416;-71
2021/05/02 09:28:45;;;;;;;14.55;6.20;;;;;;;;;;5074915;28;20028;-78
2021/05/02 09:31:13;;;;;;;13.73;6.75;;;;;;;;;;5074726;28;20020;-76
2021/05/02 09:33:39;;;;;;;12.85;5.75;;;;;;;;;;5074977;28;20053;-75
2021/05/02 09:36:09;;;;;;;10.23;3.85;;;;;;;;;;5074678;28;20041;-77
2021/05/02 09:38:35;;;;;;;15.70;6.10;;;;;;;;;;5075123;28;20055;-76
2021/05/02 09:41:02;;;;;;;13.38;3.97;;;;;;;;;;5074843;28;20082;-77
2021/05/02 09:43:28;;;;;;;10.43;3.70;;;;;;;;;;5074807;28;20027;-76
2021/05/02 09:46:08;;;;;;;12.05;4.30;;;;;;;;;;5074769;28;20476;-76
2021/05/02 09:48:34;;;;;;;9.45;3.67;;;;;;;;;;5074624;28;20032;-76
2021/05/02 09:51:12;;;;;;;11.23;4.15;;;;;;;;;;5074662;28;20534;-78
2021/05/02 09:53:39;;;;;;;10.43;3.22;;;;;;;;;;5074747;28;20025;-75
2021/05/02 09:56:14;;;;;;;11.48;3.85;;;;;;;;;;5074662;28;20059;-76
2021/05/02 09:58:41;;;;;;;12.23;4.25;;;;;;;;;;5074496;28;20021;-76
2021/05/02 10:01:07;;;;;;;10.15;3.25;;;;;;;;;;5074201;28;20045;-77
2021/05/02 10:03:36;;;;;;;10.70;2.65;;;;;;;;;;5074342;28;20070;-77
2021/05/02 10:06:20;;;;;;;10.60;3.50;;;;;;;;;;5074260;28;20042;-76
2021/05/02 10:08:46;;;;;;;42.90;5.20;;;;;;;;;;5074151;28;20021;-76
2021/05/02 10:11:13;;;;;;;16.48;3.25;;;;;;;;;;5074183;28;20112;-75
2021/05/02 10:13:39;;;;;;;13.07;3.25;;;;;;;;;;5074623;28;20056;-76
2021/05/02 10:16:06;;;;;;;7.50;1.98;;;;;;;;;;5073716;28;20024;-76
2021/05/02 10:18:32;;;;;;;12.10;3.00;;;;;;;;;;5074112;28;20107;-76
2021/05/02 10:20:59;;;;;;;10.57;2.60;;;;;;;;;;5073914;28;20037;-76
2021/05/02 10:23:25;;;;;;;15.55;2.97;;;;;;;;;;5073928;28;20086;-76
2021/05/02 10:25:57;;;;;;;12.82;3.30;;;;;;;;;;5073921;28;20027;-76
2021/05/02 10:28:28;;;;;;;11.50;3.17;;;;;;;;;;5073901;28;20063;-79
2021/05/02 10:30:55;;;;;;;11.20;2.45;;;;;;;;;;5073575;28;20090;-77
2021/05/02 10:33:31;;;;;;;13.00;3.58;;;;;;;;;;5073341;28;20090;-77
2021/05/02 10:36:20;;;;;;;12.73;2.42;;;;;;;;;;5073572;28;20131;-79
2021/05/02 10:38:46;;;;;;;9.02;2.25;;;;;;;;;;5063352;28;20558;-75
2021/05/02 10:41:31;;;;;;;14.25;2.60;;;;;;;;;;5073029;28;20032;-76
2021/05/02 10:44:12;;;;;;;13.00;3.65;;;;;;;;;;5073633;28;20043;-76
2021/05/02 10:46:57;;;;;;;8.93;3.35;;;;;;;;;;5073563;28;20028;-77
2021/05/02 10:49:23;;;;;;;13.48;3.33;;;;;;;;;;5073362;28;20161;-77
2021/05/02 10:51:52;;;;;;;9.00;3.00;;;;;;;;;;5073473;28;20017;-77
2021/05/02 10:54:20;;;;;;;9.93;3.05;;;;;;;;;;5073610;28;20024;-76
2021/05/02 10:56:56;;;;;;;9.10;2.03;;;;;;;;;;5073646;28;20044;-77
2021/05/02 10:59:24;;;;;;;10.57;3.00;;;;;;;;;;5073426;28;20147;-76
2021/05/02 11:01:50;;;;;;;11.55;2.92;;;;;;;;;;5073187;28;20032;-77
2021/05/02 11:04:17;;;;;;;12.45;3.35;;;;;;;;;;5073552;28;20029;-76
2021/05/02 11:06:43;;;;;;;10.55;2.85;;;;;;;;;;5073407;28;20021;-77
2021/05/02 11:09:09;;;;;;;13.25;4.53;;;;;;;;;;5073288;28;20048;-78
2021/05/02 11:11:39;;;;;;;9.82;3.53;;;;;;;;;;5073332;28;20059;-76
2021/05/02 11:14:09;;;;;;;10.50;3.30;;;;;;;;;;5073204;28;20039;-77
2021/05/02 11:16:43;;;;;;;11.70;3.30;;;;;;;;;;5073086;28;20112;-78
2021/05/02 11:19:13;;;;;;;12.93;3.58;;;;;;;;;;5073259;28;20108;-78
2021/05/02 11:24:15;;;;;;;14.93;3.53;;;;;;;;;;5073135;28;20036;-77
2021/05/02 11:27:04;;;;;;;13.30;2.88;;;;;;;;;;5073020;28;20036;-77
2021/05/02 11:29:56;;;;;;;14.63;3.63;;;;;;;;;;5072968;28;20024;-77
2021/05/02 11:32:30;;;;;;;13.15;3.17;;;;;;;;;;5072424;28;20031;-76
2021/05/02 11:35:03;;;;;;;9.75;2.95;;;;;;;;;;5072846;28;20115;-76
2021/05/02 11:37:48;;;;;;;16.80;4.05;;;;;;;;;;5073316;28;20484;-76
2021/05/02 11:40:26;;;;;;;9.73;3.92;;;;;;;;;;5073122;28;20450;-77
2021/05/02 11:43:11;;;;;;;16.13;4.68;;;;;;;;;;5073055;28;20032;-76
2021/05/02 11:45:40;;;;;;;15.15;5.65;;;;;;;;;;5072847;28;20064;-77
2021/05/02 11:48:07;;;;;;;11.15;2.97;;;;;;;;;;5055103;28;20035;-77
2021/05/02 11:50:40;;;;;;;11.80;3.28;;;;;;;;;;5073140;28;20028;-77
2021/05/02 11:53:07;;;;;;;13.23;2.70;;;;;;;;;;5074589;28;20104;-77
2021/05/02 11:55:51;;;;;;;13.32;4.03;;;;;;;;;;5076907;28;20024;-77
2021/05/02 11:58:17;;;;;;;13.57;2.90;;;;;;;;;;5076795;28;20070;-78
2021/05/02 12:00:50;;;;;;;10.88;2.78;;;;;;;;;;5076742;28;20434;-76
2021/05/02 12:03:18;;;;;;;12.90;2.60;;;;;;;;;;5076560;28;20039;-77
2021/05/02 12:06:02;;;;;;;15.02;3.55;;;;;;;;;;5076648;28;20361;-78
2021/05/02 12:08:30;;;;;;;11.18;2.97;;;;;;;;;;5076437;28;20028;-84
2021/05/02 12:10:56;;;;;;;11.82;3.70;;;;;;;;;;5076706;28;20078;-79
2021/05/02 12:13:43;;;;;;;11.15;2.80;;;;;;;;;;5076417;28;20029;-77
2021/05/02 12:16:09;;;;;;;13.23;3.22;;;;;;;;;;5076428;28;20456;-76
2021/05/02 12:18:44;;;;;;;13.23;3.83;;;;;;;;;;5076306;28;20025;-76
2021/05/02 12:21:11;;;;;;;12.23;3.70;;;;;;;;;;5058345;28;20039;-78
2021/05/02 12:23:37;;;;;;;15.48;5.28;;;;;;;;;;5076519;28;20052;-76
2021/05/02 12:26:07;;;;;;;11.15;3.13;;;;;;;;;;5076349;28;20058;-76
2021/05/02 12:28:33;;;;;;;16.13;4.75;;;;;;;;;;5076210;28;20416;-76
2021/05/02 12:30:59;;;;;;;12.63;3.10;;;;;;;;;;5076178;28;20476;-76
2021/05/02 12:33:25;;;;;;;12.40;3.85;;;;;;;;;;5075651;28;20063;-76
2021/05/02 12:35:51;;;;;;;11.07;3.08;;;;;;;;;;5075949;28;20048;-76
2021/05/02 12:38:24;;;;;;;15.30;3.25;;;;;;;;;;5076033;28;20064;-76
2021/05/02 12:40:51;;;;;;;12.60;3.28;;;;;;;;;;5076006;28;20021;-76
2021/05/02 12:43:27;;;;;;;11.20;2.58;;;;;;;;;;5075772;28;20055;-76
2021/05/02 12:45:53;;;;;;;12.05;3.08;;;;;;;;;;5075774;28;20029;-76
2021/05/02 12:48:30;;;;;;;13.50;3.13;;;;;;;;;;5075664;28;20103;-75
2021/05/02 12:50:56;;;;;;;28.55;15.88;;;;;;;;;;5075446;28;20027;-75
2021/05/02 12:53:23;;;;;;;11.63;3.72;;;;;;;;;;5075544;28;20052;-75
2021/05/02 12:55:52;;;;;;;14.90;4.43;;;;;;;;;;5075783;28;20434;-70
2021/05/02 12:58:32;;;;;;;12.02;3.30;;;;;;;;;;5075678;28;20067;-71
2021/05/02 13:01:01;;;;;;;11.20;2.92;;;;;;;;;;5075767;28;20031;-72
2021/05/02 13:03:50;;;;;;;14.00;4.63;;;;;;;;;;5075463;28;20397;-71
2021/05/02 13:06:17;;;;;;;13.75;3.72;;;;;;;;;;5075037;28;20111;-73
2021/05/02 13:08:53;;;;;;;14.35;2.75;;;;;;;;;;5075485;28;20074;-70
2021/05/02 13:11:38;;;;;;;11.50;3.42;;;;;;;;;;5075444;28;20020;-69
2021/05/02 13:14:23;;;;;;;12.70;2.92;;;;;;;;;;5075431;28;20028;-77
2021/05/02 13:16:50;;;;;;;12.50;3.30;;;;;;;;;;5075125;28;20491;-76
2021/05/02 13:19:25;;;;;;;11.02;2.90;;;;;;;;;;5075115;28;20047;-77
2021/05/02 13:21:52;;;;;;;14.57;3.92;;;;;;;;;;5057229;28;20059;-75
2021/05/02 13:24:19;;;;;;;11.18;2.50;;;;;;;;;;5075359;28;20024;-76
2021/05/02 13:26:46;;;;;;;13.27;4.80;;;;;;;;;;5075158;28;20042;-76
2021/05/02 13:29:14;;;;;;;13.65;4.07;;;;;;;;;;5075176;28;20029;-75
2021/05/02 13:31:41;;;;;;;9.95;2.83;;;;;;;;;;5057222;28;20040;-76
2021/05/02 13:34:08;;;;;;;14.23;2.80;;;;;;;;;;5075093;28;20494;-74
2021/05/02 13:36:34;;;;;;;14.35;3.35;;;;;;;;;;5074999;28;20568;-77
2021/05/02 13:39:01;;;;;;;15.23;4.28;;;;;;;;;;5074956;28;20082;-76
2021/05/02 13:41:28;;;;;;;12.27;3.70;;;;;;;;;;5074826;28;20174;-75
2021/05/02 13:44:05;;;;;;;12.20;3.00;;;;;;;;;;5074675;28;20024;-77
2021/05/02 13:46:31;;;;;;;13.30;3.55;;;;;;;;;;5074735;28;20107;-76
2021/05/02 13:48:57;;;;;;;14.55;2.90;;;;;;;;;;5074843;28;20021;-75
2021/05/02 13:51:23;;;;;;;15.90;4.70;;;;;;;;;;5074670;28;20368;-75
2021/05/02 13:53:50;;;;;;;10.90;3.53;;;;;;;;;;5074455;28;20025;-75
2021/05/02 13:56:18;;;;;;;15.13;3.58;;;;;;;;;;5074294;28;20031;-76
2021/05/02 13:58:44;;;;;;;15.55;3.60;;;;;;;;;;5074352;28;20048;-77
2021/05/02 14:01:10;;;;;;;14.60;3.85;;;;;;;;;;5074363;28;20093;-77
2021/05/02 14:03:36;;;;;;;12.70;2.90;;;;;;;;;;5074611;28;20029;-76
2021/05/02 14:06:02;;;;;;;13.75;2.90;;;;;;;;;;5074455;28;20055;-81
2021/05/02 14:08:28;;;;;;;19.83;3.97;;;;;;;;;;5074506;28;20021;-82
2021/05/02 14:10:54;;;;;;;19.88;4.28;;;;;;;;;;5074646;28;20033;-78
2021/05/02 14:13:20;;;;;;;11.57;3.42;;;;;;;;;;5074172;28;20031;-78
2021/05/02 14:15:47;;;;;;;17.65;4.10;;;;;;;;;;5073660;28;20027;-82
2021/05/02 14:18:13;;;;;;;13.60;3.33;;;;;;;;;;5074022;28;20043;-81
2021/05/02 14:20:39;;;;;;;15.93;2.80;;;;;;;;;;5074068;28;20032;-77
2021/05/02 14:23:08;;;;;;;14.23;3.03;;;;;;;;;;5074054;28;20041;-75
2021/05/02 14:25:35;;;;;;;14.35;3.05;;;;;;;;;;5074006;28;20075;-77
2021/05/02 14:28:01;;;;;;;17.67;3.30;;;;;;;;;;5073761;28;20021;-80
2021/05/02 14:30:27;;;;;;;13.82;2.55;;;;;;;;;;5073995;28;20047;-77
2021/05/02 14:32:53;;;;;;;16.95;4.63;;;;;;;;;;5073905;28;20039;-78